sensor_id;sensor_type;location;lat;lon;timestamp;pressure;altitude;pressure_sealevel;temperature;humidity
69772;BME280;57046;45.988;18.664;2022-09-13T00:00:15;100612.25;;;12.93;97.31
69772;BME280;57046;45.988;18.664;2022-09-13T00:02:40;100604.75;;;12.90;96.41
69772;BME280;57046;45.988;18.664;2022-09-13T00:05:06;100601.59;;;12.88;97.55
69772;BME280;57046;45.988;18.664;2022-09-13T00:07:31;100598.84;;;12.75;98.15
69772;BME280;57046;45.988;18.664;2022-09-13T00:09:56;100596.00;;;12.72;97.83
69772;BME280;57046;45.988;18.664;2022-09-13T00:12:22;100604.13;;;12.72;97.48
69772;BME280;57046;45.988;18.664;2022-09-13T00:14:47;100588.69;;;12.64;98.01
69772;BME280;57046;45.988;18.664;2022-09-13T00:17:12;100596.16;;;12.67;97.73
69772;BME280;57046;45.988;18.664;2022-09-13T00:19:38;100586.44;;;12.66;98.24
69772;BME280;57046;45.988;18.664;2022-09-13T00:22:03;100594.91;;;12.64;98.45
69772;BME280;57046;45.988;18.664;2022-09-13T00:24:28;100583.47;;;12.59;98.54
69772;BME280;57046;45.988;18.664;2022-09-13T00:26:53;100589.69;;;12.59;97.57
69772;BME280;57046;45.988;18.664;2022-09-13T00:29:19;100585.19;;;12.63;96.71
69772;BME280;57046;45.988;18.664;2022-09-13T00:31:44;100588.38;;;12.65;98.37
69772;BME280;57046;45.988;18.664;2022-09-13T00:34:09;100583.59;;;12.62;97.81
69772;BME280;57046;45.988;18.664;2022-09-13T00:36:35;100576.47;;;12.58;97.19
69772;BME280;57046;45.988;18.664;2022-09-13T00:39:00;100581.41;;;12.56;97.43
69772;BME280;57046;45.988;18.664;2022-09-13T00:41:25;100585.13;;;12.51;97.83
69772;BME280;57046;45.988;18.664;2022-09-13T00:43:55;100577.31;;;12.50;98.13
69772;BME280;57046;45.988;18.664;2022-09-13T00:48:56;100570.56;;;12.56;98.87
69772;BME280;57046;45.988;18.664;2022-09-13T00:51:24;100578.25;;;12.54;98.48
69772;BME280;57046;45.988;18.664;2022-09-13T00:53:51;100584.66;;;12.49;97.93
69772;BME280;57046;45.988;18.664;2022-09-13T00:56:34;100582.13;;;12.44;98.55
69772;BME280;57046;45.988;18.664;2022-09-13T00:59:06;100581.88;;;12.37;98.23
69772;BME280;57046;45.988;18.664;2022-09-13T01:01:38;100578.81;;;12.39;96.95
69772;BME280;57046;45.988;18.664;2022-09-13T01:04:05;100570.22;;;12.37;96.01
69772;BME280;57046;45.988;18.664;2022-09-13T01:06:33;100586.03;;;12.35;96.54
69772;BME280;57046;45.988;18.664;2022-09-13T01:09:01;100581.44;;;12.27;97.14
69772;BME280;57046;45.988;18.664;2022-09-13T01:14:10;100582.56;;;12.25;99.78
69772;BME280;57046;45.988;18.664;2022-09-13T01:16:36;100579.06;;;12.25;100.00
69772;BME280;57046;45.988;18.664;2022-09-13T01:19:02;100578.16;;;12.21;100.00
69772;BME280;57046;45.988;18.664;2022-09-13T01:32:10;100579.94;;;12.08;97.84
69772;BME280;57046;45.988;18.664;2022-09-13T01:40:23;100576.66;;;11.94;98.09
69772;BME280;57046;45.988;18.664;2022-09-13T01:45:38;100578.31;;;12.16;99.21
69772;BME280;57046;45.988;18.664;2022-09-13T01:56:27;100572.03;;;12.03;99.78
69772;BME280;57046;45.988;18.664;2022-09-13T01:59:04;100578.53;;;12.02;100.00
69772;BME280;57046;45.988;18.664;2022-09-13T02:01:55;100578.53;;;12.02;100.00
69772;BME280;57046;45.988;18.664;2022-09-13T02:04:26;100577.59;;;11.98;100.00
69772;BME280;57046;45.988;18.664;2022-09-13T02:07:01;100576.66;;;11.94;100.00
69772;BME280;57046;45.988;18.664;2022-09-13T02:09:30;100576.66;;;11.94;100.00
69772;BME280;57046;45.988;18.664;2022-09-13T02:12:01;100560.59;;;11.89;100.00
69772;BME280;57046;45.988;18.664;2022-09-13T02:14:31;100557.25;;;11.92;100.00
69772;BME280;57046;45.988;18.664;2022-09-13T02:20:19;100565.06;;;11.94;99.58
69772;BME280;57046;45.988;18.664;2022-09-13T02:22:47;100556.59;;;11.95;99.26
69772;BME280;57046;45.988;18.664;2022-09-13T02:25:18;100556.44;;;11.92;99.63
69772;BME280;57046;45.988;18.664;2022-09-13T02:27:48;100556.13;;;11.93;100.00
69772;BME280;57046;45.988;18.664;2022-09-13T02:30:16;100560.25;;;11.91;99.34
69772;BME280;57046;45.988;18.664;2022-09-13T02:32:50;100560.25;;;11.91;99.78
69772;BME280;57046;45.988;18.664;2022-09-13T02:35:28;100554.09;;;11.90;100.00
69772;BME280;57046;45.988;18.664;2022-09-13T02:38:05;100545.81;;;11.87;100.00
69772;BME280;57046;45.988;18.664;2022-09-13T02:40:48;100548.69;;;11.82;100.00
69772;BME280;57046;45.988;18.664;2022-09-13T02:43:21;100554.63;;;11.75;100.00
69772;BME280;57046;45.988;18.664;2022-09-13T02:51:37;100548.28;;;11.62;100.00
69772;BME280;57046;45.988;18.664;2022-09-13T02:55:00;100545.56;;;11.62;100.00
69772;BME280;57046;45.988;18.664;2022-09-13T02:57:21;100548.72;;;11.64;100.00
69772;BME280;57046;45.988;18.664;2022-09-13T02:59:50;100546.50;;;11.66;100.00
69772;BME280;57046;45.988;18.664;2022-09-13T03:02:19;100550.31;;;11.74;100.00
69772;BME280;57046;45.988;18.664;2022-09-13T03:04:46;100552.84;;;11.79;99.04
69772;BME280;57046;45.988;18.664;2022-09-13T03:07:14;100543.56;;;11.89;100.00
69772;BME280;57046;45.988;18.664;2022-09-13T03:09:49;100555.09;;;12.06;100.00
69772;BME280;57046;45.988;18.664;2022-09-13T03:26:22;100552.91;;;12.29;98.03
69772;BME280;57046;45.988;18.664;2022-09-13T03:29:05;100554.94;;;12.32;99.44
69772;BME280;57046;45.988;18.664;2022-09-13T03:34:11;100552.63;;;12.22;100.00
69772;BME280;57046;45.988;18.664;2022-09-13T03:36:53;100543.06;;;12.24;100.00
69772;BME280;57046;45.988;18.664;2022-09-13T03:39:33;100547.69;;;12.24;100.00
69772;BME280;57046;45.988;18.664;2022-09-13T03:42:11;100544.16;;;12.23;100.00
69772;BME280;57046;45.988;18.664;2022-09-13T03:44:40;100550.81;;;12.35;100.00
69772;BME280;57046;45.988;18.664;2022-09-13T03:47:09;100537.72;;;12.37;100.00
69772;BME280;57046;45.988;18.664;2022-09-13T03:49:37;100544.50;;;12.43;99.94
69772;BME280;57046;45.988;18.664;2022-09-13T03:52:03;100540.69;;;12.44;99.37
69772;BME280;57046;45.988;18.664;2022-09-13T03:54:31;100549.09;;;12.51;100.00
69772;BME280;57046;45.988;18.664;2022-09-13T03:59:38;100556.88;;;12.52;99.96
69772;BME280;57046;45.988;18.664;2022-09-13T04:02:06;100551.72;;;12.59;98.73
69772;BME280;57046;45.988;18.664;2022-09-13T04:04:32;100550.28;;;12.62;99.14
69772;BME280;57046;45.988;18.664;2022-09-13T04:06:58;100550.41;;;12.65;100.00
69772;BME280;57046;45.988;18.664;2022-09-13T04:09:23;100548.47;;;12.66;100.00
69772;BME280;57046;45.988;18.664;2022-09-13T04:11:48;100541.28;;;12.70;100.00
69772;BME280;57046;45.988;18.664;2022-09-13T04:14:14;100543.31;;;12.73;100.00
69772;BME280;57046;45.988;18.664;2022-09-13T04:16:40;100543.25;;;12.82;100.00
69772;BME280;57046;45.988;18.664;2022-09-13T04:19:07;100548.03;;;12.85;99.79
69772;BME280;57046;45.988;18.664;2022-09-13T04:21:33;100553.88;;;12.87;99.41
69772;BME280;57046;45.988;18.664;2022-09-13T04:23:58;100553.88;;;12.87;98.23
69772;BME280;57046;45.988;18.664;2022-09-13T04:26:24;100554.50;;;12.92;98.14
69772;BME280;57046;45.988;18.664;2022-09-13T04:28:52;100562.63;;;12.92;96.45
69772;BME280;57046;45.988;18.664;2022-09-13T04:31:18;100565.59;;;12.99;97.38
69772;BME280;57046;45.988;18.664;2022-09-13T04:33:43;100558.59;;;12.98;97.13
69772;BME280;57046;45.988;18.664;2022-09-13T04:36:08;100558.91;;;12.97;98.60
69772;BME280;57046;45.988;18.664;2022-09-13T04:38:33;100562.22;;;13.02;98.33
69772;BME280;57046;45.988;18.664;2022-09-13T04:40:59;100557.69;;;13.06;98.06
69772;BME280;57046;45.988;18.664;2022-09-13T04:43:24;100558.84;;;13.05;99.34
69772;BME280;57046;45.988;18.664;2022-09-13T04:45:50;100552.28;;;13.06;99.61
69772;BME280;57046;45.988;18.664;2022-09-13T04:48:15;100550.56;;;13.02;99.38
69772;BME280;57046;45.988;18.664;2022-09-13T04:50:41;100555.94;;;13.10;99.65
69772;BME280;57046;45.988;18.664;2022-09-13T04:53:06;100561.16;;;13.15;99.90
69772;BME280;57046;45.988;18.664;2022-09-13T04:55:31;100564.00;;;13.19;99.79
69772;BME280;57046;45.988;18.664;2022-09-13T04:57:57;100557.56;;;13.23;97.59
69772;BME280;57046;45.988;18.664;2022-09-13T05:00:22;100556.59;;;13.40;97.37
69772;BME280;57046;45.988;18.664;2022-09-13T05:02:48;100556.94;;;13.39;97.21
69772;BME280;57046;45.988;18.664;2022-09-13T05:05:13;100558.06;;;13.38;97.40
69772;BME280;57046;45.988;18.664;2022-09-13T05:07:38;100563.97;;;13.40;99.76
69772;BME280;57046;45.988;18.664;2022-09-13T05:10:04;100567.13;;;13.42;99.03
69772;BME280;57046;45.988;18.664;2022-09-13T05:12:29;100562.59;;;13.46;99.05
69772;BME280;57046;45.988;18.664;2022-09-13T05:14:55;100567.41;;;13.28;100.00
69772;BME280;57046;45.988;18.664;2022-09-13T05:17:20;100581.41;;;13.18;100.00
69772;BME280;57046;45.988;18.664;2022-09-13T05:19:46;100577.31;;;13.12;100.00
69772;BME280;57046;45.988;18.664;2022-09-13T05:22:11;100575.97;;;13.18;100.00
69772;BME280;57046;45.988;18.664;2022-09-13T05:24:36;100580.78;;;13.33;100.00
69772;BME280;57046;45.988;18.664;2022-09-13T05:27:02;100585.88;;;13.35;99.98
69772;BME280;57046;45.988;18.664;2022-09-13T05:29:27;100580.78;;;13.33;100.00
69772;BME280;57046;45.988;18.664;2022-09-13T05:31:52;100571.19;;;13.36;100.00
69772;BME280;57046;45.988;18.664;2022-09-13T05:34:18;100572.47;;;13.50;99.66
69772;BME280;57046;45.988;18.664;2022-09-13T05:36:43;100577.91;;;13.50;100.00
69772;BME280;57046;45.988;18.664;2022-09-13T05:39:13;100584.22;;;13.54;100.00
69772;BME280;57046;45.988;18.664;2022-09-13T05:41:39;100586.25;;;13.45;100.00
69772;BME280;57046;45.988;18.664;2022-09-13T05:44:04;100584.09;;;13.51;100.00
69772;BME280;57046;45.988;18.664;2022-09-13T05:46:29;100590.38;;;13.63;99.72
69772;BME280;57046;45.988;18.664;2022-09-13T05:48:58;100589.81;;;13.70;100.00
69772;BME280;57046;45.988;18.664;2022-09-13T05:51:24;100596.28;;;13.77;100.00
69772;BME280;57046;45.988;18.664;2022-09-13T05:53:51;100583.94;;;13.92;100.00
69772;BME280;57046;45.988;18.664;2022-09-13T05:56:18;100585.09;;;14.03;100.00
69772;BME280;57046;45.988;18.664;2022-09-13T05:58:46;100584.63;;;14.13;97.61
69772;BME280;57046;45.988;18.664;2022-09-13T06:01:13;100589.19;;;14.34;96.44
69772;BME280;57046;45.988;18.664;2022-09-13T06:03:38;100587.34;;;14.50;96.00
69772;BME280;57046;45.988;18.664;2022-09-13T06:06:04;100583.69;;;14.58;93.13
69772;BME280;57046;45.988;18.664;2022-09-13T06:08:31;100595.34;;;14.70;93.17
69772;BME280;57046;45.988;18.664;2022-09-13T06:10:59;100592.72;;;14.74;92.94
69772;BME280;57046;45.988;18.664;2022-09-13T06:13:26;100579.78;;;14.83;91.04
69772;BME280;57046;45.988;18.664;2022-09-13T06:15:53;100587.69;;;14.88;89.08
69772;BME280;57046;45.988;18.664;2022-09-13T06:18:19;100582.03;;;14.93;88.36
69772;BME280;57046;45.988;18.664;2022-09-13T06:20:45;100586.31;;;14.94;88.11
69772;BME280;57046;45.988;18.664;2022-09-13T06:23:11;100582.69;;;14.90;86.78
69772;BME280;57046;45.988;18.664;2022-09-13T06:25:36;100590.72;;;14.99;86.88
69772;BME280;57046;45.988;18.664;2022-09-13T06:28:01;100576.53;;;15.05;86.21
69772;BME280;57046;45.988;18.664;2022-09-13T06:30:27;100577.44;;;15.25;85.04
69772;BME280;57046;45.988;18.664;2022-09-13T06:32:55;100581.88;;;15.29;85.46
69772;BME280;57046;45.988;18.664;2022-09-13T06:35:21;100580.38;;;15.32;85.85
69772;BME280;57046;45.988;18.664;2022-09-13T06:37:46;100585.88;;;15.48;86.95
69772;BME280;57046;45.988;18.664;2022-09-13T06:40:11;100589.22;;;15.57;84.58
69772;BME280;57046;45.988;18.664;2022-09-13T06:42:37;100588.72;;;15.67;85.46
69772;BME280;57046;45.988;18.664;2022-09-13T06:45:03;100586.78;;;15.67;85.64
69772;BME280;57046;45.988;18.664;2022-09-13T06:47:28;100587.41;;;15.76;83.49
69772;BME280;57046;45.988;18.664;2022-09-13T06:52:37;100596.97;;;15.86;81.84
69772;BME280;57046;45.988;18.664;2022-09-13T06:55:03;100596.63;;;15.88;80.50
69772;BME280;57046;45.988;18.664;2022-09-13T06:57:29;100598.28;;;15.92;80.40
69772;BME280;57046;45.988;18.664;2022-09-13T06:59:54;100599.63;;;15.98;80.32
69772;BME280;57046;45.988;18.664;2022-09-13T07:02:20;100590.84;;;16.05;79.88
69772;BME280;57046;45.988;18.664;2022-09-13T07:04:45;100591.25;;;16.07;78.94
69772;BME280;57046;45.988;18.664;2022-09-13T07:07:12;100595.31;;;15.97;79.48
69772;BME280;57046;45.988;18.664;2022-09-13T07:09:37;100598.47;;;15.99;79.46
69772;BME280;57046;45.988;18.664;2022-09-13T07:12:04;100593.28;;;16.10;80.90
69772;BME280;57046;45.988;18.664;2022-09-13T07:14:29;100605.41;;;16.28;79.59
69772;BME280;57046;45.988;18.664;2022-09-13T07:16:55;100596.25;;;16.36;80.15
69772;BME280;57046;45.988;18.664;2022-09-13T07:19:22;100596.91;;;16.49;77.54
69772;BME280;57046;45.988;18.664;2022-09-13T07:21:49;100595.94;;;16.57;77.43
69772;BME280;57046;45.988;18.664;2022-09-13T07:24:15;100592.88;;;16.77;77.92
69772;BME280;57046;45.988;18.664;2022-09-13T07:26:41;100592.53;;;16.98;78.46
69772;BME280;57046;45.988;18.664;2022-09-13T07:29:10;100599.00;;;17.09;75.45
69772;BME280;57046;45.988;18.664;2022-09-13T07:31:37;100604.19;;;17.14;73.02
69772;BME280;57046;45.988;18.664;2022-09-13T07:34:11;100597.16;;;17.13;74.80
69772;BME280;57046;45.988;18.664;2022-09-13T07:36:36;100596.13;;;17.21;73.24
69772;BME280;57046;45.988;18.664;2022-09-13T07:39:03;100593.06;;;17.46;75.71
69772;BME280;57046;45.988;18.664;2022-09-13T07:41:29;100594.09;;;17.57;73.08
69772;BME280;57046;45.988;18.664;2022-09-13T07:43:56;100588.16;;;17.74;74.10
69772;BME280;57046;45.988;18.664;2022-09-13T07:46:26;100595.13;;;17.71;71.95
69772;BME280;57046;45.988;18.664;2022-09-13T07:48:53;100587.03;;;18.01;70.87
69772;BME280;57046;45.988;18.664;2022-09-13T07:51:21;100580.53;;;18.36;68.99
69772;BME280;57046;45.988;18.664;2022-09-13T07:53:48;100578.50;;;18.55;66.04
69772;BME280;57046;45.988;18.664;2022-09-13T07:56:15;100580.88;;;18.34;65.48
69772;BME280;57046;45.988;18.664;2022-09-13T07:58:42;100584.47;;;18.38;69.24
69772;BME280;57046;45.988;18.664;2022-09-13T08:01:18;100580.94;;;18.38;67.24
69772;BME280;57046;45.988;18.664;2022-09-13T08:03:59;100583.16;;;18.55;69.24
69772;BME280;57046;45.988;18.664;2022-09-13T08:06:29;100588.44;;;18.67;68.34
69772;BME280;57046;45.988;18.664;2022-09-13T08:08:56;100582.63;;;19.05;67.12
69772;BME280;57046;45.988;18.664;2022-09-13T08:11:24;100584.31;;;19.47;63.89
69772;BME280;57046;45.988;18.664;2022-09-13T08:13:51;100584.75;;;19.52;63.80
69772;BME280;57046;45.988;18.664;2022-09-13T08:16:19;100583.09;;;19.44;61.23
69772;BME280;57046;45.988;18.664;2022-09-13T08:18:46;100589.28;;;19.74;61.52
69772;BME280;57046;45.988;18.664;2022-09-13T08:21:12;100584.25;;;19.83;59.52
69772;BME280;57046;45.988;18.664;2022-09-13T08:23:38;100577.31;;;19.49;61.01
69772;BME280;57046;45.988;18.664;2022-09-13T08:26:04;100566.03;;;19.24;60.95
69772;BME280;57046;45.988;18.664;2022-09-13T08:28:30;100578.59;;;19.62;58.48
69772;BME280;57046;45.988;18.664;2022-09-13T08:30:55;100584.63;;;19.78;57.20
69772;BME280;57046;45.988;18.664;2022-09-13T08:33:20;100583.75;;;19.71;58.77
69772;BME280;57046;45.988;18.664;2022-09-13T08:35:52;100582.25;;;19.80;58.39
69772;BME280;57046;45.988;18.664;2022-09-13T08:38:18;100577.03;;;20.12;56.55
69772;BME280;57046;45.988;18.664;2022-09-13T08:40:55;100569.75;;;20.30;56.40
69772;BME280;57046;45.988;18.664;2022-09-13T08:48:49;100579.75;;;20.63;58.17
69772;BME280;57046;45.988;18.664;2022-09-13T08:51:35;100591.63;;;20.85;53.30
69772;BME280;57046;45.988;18.664;2022-09-13T08:54:02;100588.53;;;20.94;52.07
69772;BME280;57046;45.988;18.664;2022-09-13T08:56:39;100586.09;;;20.78;51.23
69772;BME280;57046;45.988;18.664;2022-09-13T09:04:44;100582.16;;;20.79;57.42
69772;BME280;57046;45.988;18.664;2022-09-13T09:07:23;100576.47;;;21.12;50.34
69772;BME280;57046;45.988;18.664;2022-09-13T09:12:26;100578.47;;;21.26;47.35
69772;BME280;57046;45.988;18.664;2022-09-13T09:15:14;100576.13;;;21.42;50.17
69772;BME280;57046;45.988;18.664;2022-09-13T09:20:24;100578.53;;;21.82;47.46
69772;BME280;57046;45.988;18.664;2022-09-13T09:22:52;100572.25;;;21.78;47.85
69772;BME280;57046;45.988;18.664;2022-09-13T09:25:20;100568.69;;;21.74;50.45
69772;BME280;57046;45.988;18.664;2022-09-13T09:27:46;100573.84;;;21.90;49.61
69772;BME280;57046;45.988;18.664;2022-09-13T09:30:12;100565.97;;;22.03;49.83
69772;BME280;57046;45.988;18.664;2022-09-13T09:38:40;100552.16;;;22.35;49.69
69772;BME280;57046;45.988;18.664;2022-09-13T09:41:27;100558.00;;;22.58;47.58
69772;BME280;57046;45.988;18.664;2022-09-13T09:46:23;100540.75;;;22.32;46.81
69772;BME280;57046;45.988;18.664;2022-09-13T09:48:55;100548.16;;;22.71;49.46
69772;BME280;57046;45.988;18.664;2022-09-13T09:51:22;100539.78;;;22.92;47.72
69772;BME280;57046;45.988;18.664;2022-09-13T09:53:53;100549.63;;;22.90;47.66
69772;BME280;57046;45.988;18.664;2022-09-13T09:56:23;100537.84;;;22.89;45.15
69772;BME280;57046;45.988;18.664;2022-09-13T09:58:49;100534.97;;;23.07;44.93
69772;BME280;57046;45.988;18.664;2022-09-13T10:03:40;100519.91;;;23.25;47.07
69772;BME280;57046;45.988;18.664;2022-09-13T10:06:08;100529.25;;;23.39;48.88
69772;BME280;57046;45.988;18.664;2022-09-13T10:08:35;100518.94;;;23.53;45.37
69772;BME280;57046;45.988;18.664;2022-09-13T10:11:02;100511.13;;;23.38;44.14
69772;BME280;57046;45.988;18.664;2022-09-13T10:13:28;100514.94;;;23.58;44.25
69772;BME280;57046;45.988;18.664;2022-09-13T10:16:26;100506.50;;;23.79;42.64
69772;BME280;57046;45.988;18.664;2022-09-13T10:18:51;100511.69;;;23.73;42.88
69772;BME280;57046;45.988;18.664;2022-09-13T10:23:43;100496.66;;;23.78;44.90
69772;BME280;57046;45.988;18.664;2022-09-13T10:26:25;100493.50;;;23.76;44.37
69772;BME280;57046;45.988;18.664;2022-09-13T10:29:06;100490.94;;;23.96;44.31
69772;BME280;57046;45.988;18.664;2022-09-13T10:31:39;100489.16;;;24.19;44.95
69772;BME280;57046;45.988;18.664;2022-09-13T10:36:45;100482.81;;;24.56;42.67
69772;BME280;57046;45.988;18.664;2022-09-13T10:39:17;100482.78;;;24.90;40.53
69772;BME280;57046;45.988;18.664;2022-09-13T10:42:09;100481.44;;;25.02;41.62
69772;BME280;57046;45.988;18.664;2022-09-13T10:44:43;100468.91;;;24.94;41.47
69772;BME280;57046;45.988;18.664;2022-09-13T10:47:12;100466.84;;;24.67;42.81
69772;BME280;57046;45.988;18.664;2022-09-13T10:49:49;100464.31;;;24.50;43.24
69772;BME280;57046;45.988;18.664;2022-09-13T10:52:36;100474.41;;;24.63;42.86
69772;BME280;57046;45.988;18.664;2022-09-13T10:55:23;100473.28;;;25.18;41.40
69772;BME280;57046;45.988;18.664;2022-09-13T11:41:49;100442.28;;;25.96;38.42
69772;BME280;57046;45.988;18.664;2022-09-13T11:55:29;100410.00;;;26.29;39.19
69772;BME280;57046;45.988;18.664;2022-09-13T11:58:00;100410.16;;;26.22;39.07
69772;BME280;57046;45.988;18.664;2022-09-13T12:00:59;100403.09;;;26.57;38.25
69772;BME280;57046;45.988;18.664;2022-09-13T12:09:11;100400.06;;;25.92;39.73
69772;BME280;57046;45.988;18.664;2022-09-13T12:11:43;100393.53;;;26.02;39.85
69772;BME280;57046;45.988;18.664;2022-09-13T12:14:22;100389.56;;;26.59;38.74
69772;BME280;57046;45.988;18.664;2022-09-13T12:16:53;100389.84;;;26.80;39.29
69772;BME280;57046;45.988;18.664;2022-09-13T12:21:50;100380.69;;;26.84;39.67
69772;BME280;57046;45.988;18.664;2022-09-13T12:26:58;100383.41;;;25.72;37.77
69772;BME280;57046;45.988;18.664;2022-09-13T12:29:47;100387.09;;;25.66;39.11
69772;BME280;57046;45.988;18.664;2022-09-13T12:32:15;100389.53;;;26.03;39.91
69772;BME280;57046;45.988;18.664;2022-09-13T12:34:56;100386.47;;;25.78;39.85
69772;BME280;57046;45.988;18.664;2022-09-13T12:50:44;100352.50;;;27.17;39.57
69772;BME280;57046;45.988;18.664;2022-09-13T12:58:51;100348.31;;;26.61;36.94
69772;BME280;57046;45.988;18.664;2022-09-13T13:01:22;100345.56;;;26.25;36.61
69772;BME280;57046;45.988;18.664;2022-09-13T13:03:53;100355.00;;;25.88;38.60
69772;BME280;57046;45.988;18.664;2022-09-13T13:08:54;100349.97;;;25.83;39.84
69772;BME280;57046;45.988;18.664;2022-09-13T13:11:23;100346.78;;;25.85;39.01
69772;BME280;57046;45.988;18.664;2022-09-13T13:13:58;100348.13;;;25.76;38.94
69772;BME280;57046;45.988;18.664;2022-09-13T13:16:26;100336.63;;;25.98;38.70
69772;BME280;57046;45.988;18.664;2022-09-13T13:18:53;100336.06;;;26.42;38.08
69772;BME280;57046;45.988;18.664;2022-09-13T13:21:38;100334.25;;;26.36;37.43
69772;BME280;57046;45.988;18.664;2022-09-13T13:29:27;100329.13;;;26.14;38.37
69772;BME280;57046;45.988;18.664;2022-09-13T13:37:25;100314.84;;;26.52;40.19
69772;BME280;57046;45.988;18.664;2022-09-13T13:40:09;100311.25;;;27.03;38.23
69772;BME280;57046;45.988;18.664;2022-09-13T13:42:35;100312.50;;;27.31;37.26
69772;BME280;57046;45.988;18.664;2022-09-13T13:52:37;100314.97;;;26.80;37.55
69772;BME280;57046;45.988;18.664;2022-09-13T13:58:01;100308.91;;;26.86;39.67
69772;BME280;57046;45.988;18.664;2022-09-13T14:00:29;100313.78;;;26.98;42.30
69772;BME280;57046;45.988;18.664;2022-09-13T14:13:41;100324.47;;;25.52;39.37
69772;BME280;57046;45.988;18.664;2022-09-13T14:22:04;100322.50;;;25.29;41.21
69772;BME280;57046;45.988;18.664;2022-09-13T14:24:35;100310.09;;;25.14;41.13
69772;BME280;57046;45.988;18.664;2022-09-13T14:27:01;100301.88;;;25.11;43.13
69772;BME280;57046;45.988;18.664;2022-09-13T14:29:27;100311.63;;;25.19;42.68
69772;BME280;57046;45.988;18.664;2022-09-13T14:31:59;100297.97;;;25.08;42.37
69772;BME280;57046;45.988;18.664;2022-09-13T14:36:55;100291.41;;;25.22;43.10
69772;BME280;57046;45.988;18.664;2022-09-13T14:39:25;100293.31;;;25.25;42.36
69772;BME280;57046;45.988;18.664;2022-09-13T14:42:12;100287.84;;;25.21;42.26
69772;BME280;57046;45.988;18.664;2022-09-13T14:44:43;100294.44;;;25.51;41.95
69772;BME280;57046;45.988;18.664;2022-09-13T14:47:52;100285.25;;;25.34;41.70
69772;BME280;57046;45.988;18.664;2022-09-13T14:50:24;100278.09;;;25.37;42.94
69772;BME280;57046;45.988;18.664;2022-09-13T14:52:56;100280.25;;;25.25;43.43
69772;BME280;57046;45.988;18.664;2022-09-13T14:55:35;100279.09;;;25.03;43.28
69772;BME280;57046;45.988;18.664;2022-09-13T14:58:05;100272.84;;;24.99;44.29
69772;BME280;57046;45.988;18.664;2022-09-13T15:00:42;100272.41;;;25.01;44.39
69772;BME280;57046;45.988;18.664;2022-09-13T15:03:12;100274.75;;;24.79;45.34
69772;BME280;57046;45.988;18.664;2022-09-13T15:05:39;100276.66;;;24.59;48.13
69772;BME280;57046;45.988;18.664;2022-09-13T15:08:38;100277.25;;;24.47;46.83
69772;BME280;57046;45.988;18.664;2022-09-13T15:11:06;100267.53;;;24.62;44.36
69772;BME280;57046;45.988;18.664;2022-09-13T15:13:36;100272.00;;;24.79;43.99
69772;BME280;57046;45.988;18.664;2022-09-13T15:16:01;100260.09;;;24.82;44.10
69772;BME280;57046;45.988;18.664;2022-09-13T15:18:31;100274.94;;;24.68;45.83
69772;BME280;57046;45.988;18.664;2022-09-13T15:20:59;100279.72;;;24.64;47.20
69772;BME280;57046;45.988;18.664;2022-09-13T15:26:09;100276.41;;;24.50;44.67
69772;BME280;57046;45.988;18.664;2022-09-13T15:31:27;100266.69;;;24.65;44.58
69772;BME280;57046;45.988;18.664;2022-09-13T15:36:47;100275.53;;;24.79;45.63
69772;BME280;57046;45.988;18.664;2022-09-13T15:39:20;100273.09;;;24.85;45.13
69772;BME280;57046;45.988;18.664;2022-09-13T15:41:56;100267.31;;;24.76;46.47
69772;BME280;57046;45.988;18.664;2022-09-13T15:44:22;100278.78;;;24.74;46.17
69772;BME280;57046;45.988;18.664;2022-09-13T15:46:50;100256.59;;;24.55;46.00
69772;BME280;57046;45.988;18.664;2022-09-13T15:49:19;100256.34;;;24.46;46.14
69772;BME280;57046;45.988;18.664;2022-09-13T15:51:45;100259.56;;;24.41;45.77
69772;BME280;57046;45.988;18.664;2022-09-13T15:54:13;100256.41;;;24.42;45.96
69772;BME280;57046;45.988;18.664;2022-09-13T15:56:46;100257.66;;;24.61;45.65
69772;BME280;57046;45.988;18.664;2022-09-13T15:59:16;100257.66;;;24.61;45.94
69772;BME280;57046;45.988;18.664;2022-09-13T16:01:43;100254.97;;;24.57;46.54
69772;BME280;57046;45.988;18.664;2022-09-13T16:04:09;100252.41;;;24.43;47.51
69772;BME280;57046;45.988;18.664;2022-09-13T16:06:36;100256.22;;;24.26;47.11
69772;BME280;57046;45.988;18.664;2022-09-13T16:09:27;100261.56;;;24.10;47.65
69772;BME280;57046;45.988;18.664;2022-09-13T16:11:52;100255.09;;;23.93;48.14
69772;BME280;57046;45.988;18.664;2022-09-13T16:14:18;100265.75;;;23.64;49.90
69772;BME280;57046;45.988;18.664;2022-09-13T16:16:44;100256.47;;;23.48;49.42
69772;BME280;57046;45.988;18.664;2022-09-13T16:19:18;100259.34;;;23.37;50.83
69772;BME280;57046;45.988;18.664;2022-09-13T16:21:43;100261.78;;;23.28;51.05
69772;BME280;57046;45.988;18.664;2022-09-13T16:24:09;100251.91;;;23.30;50.62
69772;BME280;57046;45.988;18.664;2022-09-13T16:26:35;100247.38;;;23.13;52.21
69772;BME280;57046;45.988;18.664;2022-09-13T16:29:00;100251.31;;;23.12;51.84
69772;BME280;57046;45.988;18.664;2022-09-13T16:31:26;100248.34;;;22.96;52.63
69772;BME280;57046;45.988;18.664;2022-09-13T16:33:56;100250.47;;;22.78;53.29
69772;BME280;57046;45.988;18.664;2022-09-13T16:36:21;100250.56;;;22.64;53.63
69772;BME280;57046;45.988;18.664;2022-09-13T16:38:47;100244.25;;;22.63;53.48
69772;BME280;57046;45.988;18.664;2022-09-13T16:41:12;100247.53;;;22.48;54.41